Time;durP1;ratioP1;P1;durP2;ratioP2;P2;SDS_P1;SDS_P2;PMS_P1;PMS_P2;Temp;Humidity;BMP_temperature;BMP_pressure;BME280_temperature;BME280_humidity;BME280_pressure;Samples;Min_cycle;Max_cycle;Signal;HPM_P1;HPM_P2
2023/04/16 00:00:13;;;;;;;50.40;30.30;;;;;;;3.56;92.34;98654.99;270563;1271;23043;-87
2023/04/16 00:06:37;;;;;;;62.00;35.40;;;;;;;3.49;92.78;98659.80;271407;1253;23700;-86
2023/04/16 00:12:39;;;;;;;55.70;30.50;;;;;;;3.36;92.38;98660.73;271715;1267;22364;-87
2023/04/16 00:19:02;;;;;;;47.00;26.80;;;;;;;3.19;92.65;98662.77;272054;1268;22308;-87
2023/04/16 00:25:05;;;;;;;53.30;30.60;;;;;;;3.10;92.27;98671.47;273972;1267;22304;-88
2023/04/16 00:31:29;;;;;;;55.40;29.80;;;;;;;3.02;92.77;98669.23;273931;1270;22169;-87
2023/04/16 00:37:39;;;;;;;55.10;31.00;;;;;;;3.00;92.44;98674.28;273690;1270;22338;-88
2023/04/16 00:43:41;;;;;;;53.50;30.80;;;;;;;2.97;93.20;98687.08;273908;1267;22315;-87
2023/04/16 00:49:44;;;;;;;52.40;29.50;;;;;;;3.01;93.71;98700.11;273886;1267;22333;-87
2023/04/16 00:55:46;;;;;;;54.40;31.70;;;;;;;3.02;94.27;98706.17;272084;1258;22354;-87
2023/04/16 01:01:48;;;;;;;49.20;27.50;;;;;;;3.03;94.60;98712.23;272655;1269;22986;-88
2023/04/16 01:08:16;;;;;;;37.80;22.60;;;;;;;3.08;94.45;98716.05;273408;1268;22382;-86
2023/04/16 01:14:18;;;;;;;37.70;20.50;;;;;;;3.15;94.47;98717.32;273334;1269;23653;-85
2023/04/16 01:20:21;;;;;;;38.40;21.80;;;;;;;3.20;95.31;98715.04;273968;1267;22324;-86
2023/04/16 01:26:25;;;;;;;34.50;20.50;;;;;;;3.18;95.43;98709.56;273938;1270;22936;-86
2023/04/16 01:32:31;;;;;;;40.30;22.30;;;;;;;3.17;95.39;98708.58;273857;1269;22232;-86
2023/04/16 01:38:41;;;;;;;49.00;27.30;;;;;;;3.06;95.22;98709.41;271442;1268;26966;-86
2023/04/16 01:44:43;;;;;;;49.50;26.90;;;;;;;2.96;95.71;98712.83;273988;1268;23060;-86
2023/04/16 01:50:45;;;;;;;47.40;25.50;;;;;;;2.91;95.90;98717.38;273627;1267;22300;-86
2023/04/16 01:57:11;;;;;;;46.50;27.10;;;;;;;2.79;95.43;98715.70;273948;1270;22333;-86
2023/04/16 02:03:16;;;;;;;43.40;24.50;;;;;;;2.65;95.27;98712.63;273924;1268;23677;-86
2023/04/16 02:09:18;;;;;;;46.60;24.60;;;;;;;2.59;95.23;98717.80;273695;1271;23270;-87
2023/04/16 02:15:24;;;;;;;37.50;22.50;;;;;;;2.55;95.76;98724.91;273926;1268;22187;-85
2023/04/16 02:21:26;;;;;;;40.60;22.40;;;;;;;2.52;95.84;98726.42;273725;1272;22399;-86
2023/04/16 02:27:29;;;;;;;40.80;24.10;;;;;;;2.37;95.28;98727.44;273947;1267;23188;-86
2023/04/16 02:33:43;;;;;;;36.20;20.70;;;;;;;2.27;95.60;98728.84;273729;1259;22286;-86
2023/04/16 02:39:48;;;;;;;32.10;19.40;;;;;;;2.26;96.11;98742.89;273901;1271;22192;-86
2023/04/16 02:46:10;;;;;;;43.80;25.00;;;;;;;2.23;95.93;98749.20;273971;1267;22205;-86
2023/04/16 02:52:28;;;;;;;41.10;23.00;;;;;;;2.14;95.82;98757.86;273190;1257;22232;-87
2023/04/16 02:58:51;;;;;;;45.00;24.10;;;;;;;2.08;95.95;98763.26;271697;1271;22538;-86
2023/04/16 03:05:16;;;;;;;47.50;27.00;;;;;;;1.98;95.91;98768.23;269951;1272;22558;-86
2023/04/16 03:11:19;;;;;;;44.00;25.80;;;;;;;1.83;95.50;98772.69;271593;1269;22559;-86
2023/04/16 03:17:21;;;;;;;38.00;22.00;;;;;;;1.68;95.81;98783.89;270188;1268;25349;-87
2023/04/16 03:23:35;;;;;;;39.90;21.90;;;;;;;1.65;96.22;98787.91;269986;1267;22535;-87
2023/04/16 03:29:40;;;;;;;46.10;26.20;;;;;;;1.64;96.48;98794.56;269793;1272;22635;-87
2023/04/16 03:35:42;;;;;;;51.40;29.50;;;;;;;1.58;96.23;98800.41;269690;1271;22520;-86
2023/04/16 03:42:22;;;;;;;56.70;30.00;;;;;;;1.47;96.31;98803.70;271391;1269;22760;-86
2023/04/16 03:49:03;;;;;;;44.50;25.10;;;;;;;1.39;96.44;98807.84;273810;1271;23185;-86
2023/04/16 03:55:06;;;;;;;46.40;27.60;;;;;;;1.34;96.44;98815.02;272656;1268;22407;-86
2023/04/16 04:01:09;;;;;;;51.40;29.40;;;;;;;1.23;96.25;98825.36;273851;1267;23355;-86
2023/04/16 04:08:05;;;;;;;44.20;24.40;;;;;;;1.25;97.12;98840.05;274040;1267;22250;-86
2023/04/16 04:14:09;;;;;;;47.20;25.30;;;;;;;1.34;97.50;98849.23;273012;1267;25354;-86
2023/04/16 04:20:32;;;;;;;43.80;24.80;;;;;;;1.44;97.68;98855.53;271125;1267;23015;-86
2023/04/16 04:26:40;;;;;;;44.60;24.00;;;;;;;1.50;97.91;98864.27;269951;1267;22623;-84
2023/04/16 04:32:43;;;;;;;45.10;24.30;;;;;;;1.66;98.75;98871.98;271016;1268;22304;-86
2023/04/16 04:38:47;;;;;;;54.60;29.90;;;;;;;1.86;99.05;98882.58;270741;1268;22310;-86
2023/04/16 04:44:51;;;;;;;47.50;28.00;;;;;;;2.03;99.07;98883.25;273052;1268;22201;-85
2023/04/16 04:51:18;;;;;;;48.10;27.60;;;;;;;2.27;99.72;98893.57;273820;1271;22272;-86
2023/04/16 04:57:22;;;;;;;50.80;29.30;;;;;;;2.65;99.95;98885.43;273501;1267;22470;-86
2023/04/16 05:03:29;;;;;;;;;;;;;;;3.16;100.00;98886.86;273957;1267;22435;-86
2023/04/16 05:09:51;;;;;;;38.10;23.50;;;;;;;3.75;100.00;98893.95;273754;1267;23410;-86
2023/04/16 05:15:56;;;;;;;39.80;23.30;;;;;;;4.25;100.00;98902.00;273923;1267;22295;-86
2023/04/16 05:21:59;;;;;;;37.10;21.90;;;;;;;4.68;100.00;98911.21;273642;1267;22348;-87
2023/04/16 05:28:10;;;;;;;36.00;22.20;;;;;;;5.05;100.00;98920.84;273747;1268;22324;-86
2023/04/16 05:34:13;;;;;;;32.00;18.70;;;;;;;5.47;100.00;98927.86;272720;1267;22340;-86
2023/04/16 05:40:24;;;;;;;27.50;16.80;;;;;;;5.84;100.00;98936.17;270813;1257;1230656;-86
2023/04/16 05:46:30;;;;;;;26.20;15.30;;;;;;;6.23;100.00;98940.64;271015;1260;23145;-86
2023/04/16 05:52:53;;;;;;;20.80;11.50;;;;;;;6.92;100.00;98937.92;273660;1267;22666;-87
2023/04/16 05:58:55;;;;;;;17.20;11.00;;;;;;;7.69;100.00;98935.27;273573;1267;22311;-87
2023/04/16 06:04:59;;;;;;;18.00;10.90;;;;;;;8.38;99.73;98941.05;273569;1267;23081;-87
2023/04/16 06:11:07;;;;;;;16.60;10.50;;;;;;;8.88;98.06;98945.38;273612;1273;22250;-87
2023/04/16 06:17:11;;;;;;;18.10;11.80;;;;;;;9.12;96.36;98945.48;272219;1268;22590;-87
2023/04/16 06:23:44;;;;;;;21.00;13.10;;;;;;;9.45;95.86;98946.67;272787;1267;23062;-86
2023/04/16 06:29:49;;;;;;;19.60;11.40;;;;;;;9.73;94.96;98952.62;272278;1267;22409;-87
2023/04/16 06:36:21;;;;;;;20.40;13.30;;;;;;;9.87;93.64;98961.32;273694;1267;22444;-87
2023/04/16 06:43:12;;;;;;;18.80;12.40;;;;;;;9.91;93.59;98965.61;272570;1272;22310;-87
2023/04/16 06:49:17;;;;;;;12.70;8.50;;;;;;;10.08;93.51;98973.11;272649;1273;23326;-87
2023/04/16 06:56:05;;;;;;;11.50;7.50;;;;;;;10.35;92.60;98972.97;271893;1271;22483;-88
2023/04/16 07:02:32;;;;;;;12.20;8.20;;;;;;;10.55;91.63;98975.61;270960;1273;22556;-87
2023/04/16 07:08:38;;;;;;;11.60;8.20;;;;;;;10.81;91.39;98982.14;270331;1271;24543;-85
2023/04/16 07:15:08;;;;;;;19.10;10.70;;;;;;;10.92;89.93;98986.34;271447;1267;23782;-87
2023/04/16 07:21:11;;;;;;;17.90;12.10;;;;;;;11.13;90.71;98986.89;272393;1266;22315;-87
2023/04/16 07:27:18;;;;;;;19.50;13.50;;;;;;;11.27;90.22;98998.46;272697;1267;22223;-87
2023/04/16 07:33:23;;;;;;;20.60;14.00;;;;;;;11.39;90.41;99000.20;273893;1267;22696;-87
2023/04/16 07:39:27;;;;;;;21.50;14.10;;;;;;;11.89;90.68;99005.19;272778;1266;23473;-87
2023/04/16 07:45:30;;;;;;;21.30;15.10;;;;;;;12.36;89.50;99006.70;272557;1267;22393;-87
2023/04/16 07:51:37;;;;;;;19.10;14.40;;;;;;;12.56;88.24;99009.11;272950;1267;22284;-87
2023/04/16 07:57:46;;;;;;;15.20;11.30;;;;;;;12.97;87.91;99016.61;273965;1267;22372;-88
2023/04/16 08:04:23;;;;;;;14.80;10.70;;;;;;;13.42;86.71;99021.70;273309;1270;23423;-89
2023/04/16 08:10:33;;;;;;;15.60;11.20;;;;;;;13.79;86.74;99025.92;272733;1270;22363;-90
2023/04/16 08:17:15;;;;;;;13.50;9.80;;;;;;;14.29;85.74;99026.39;273099;1270;22343;-88
2023/04/16 08:23:22;;;;;;;9.00;6.70;;;;;;;14.52;83.34;99029.38;273085;1267;22317;-87
2023/04/16 08:30:15;;;;;;;11.70;8.60;;;;;;;14.96;81.98;99031.91;273264;1267;22863;-87
2023/04/16 08:36:46;;;;;;;18.60;9.90;;;;;;;15.03;80.73;99029.98;273413;1267;22323;-88
2023/04/16 08:43:26;;;;;;;7.20;5.10;;;;;;;15.00;80.06;99033.30;273682;1267;27650;-90
2023/04/16 08:49:33;;;;;;;5.60;3.60;;;;;;;15.20;79.02;99037.12;270630;1260;22611;-87
2023/04/16 08:56:15;;;;;;;5.50;3.50;;;;;;;15.56;76.95;99041.59;271942;1267;23381;-90
2023/04/16 09:02:25;;;;;;;4.40;2.80;;;;;;;15.92;73.60;99042.45;269828;1267;22636;-89
2023/04/16 09:08:49;;;;;;;3.90;2.30;;;;;;;15.96;71.60;99047.00;270484;1266;22524;-87
2023/04/16 09:15:07;;;;;;;;;;;;;;;;;;;;;
2023/04/16 09:21:13;;;;;;;4.90;2.90;;;;;;;17.36;69.14;99037.98;269883;1267;24286;-88
2023/04/16 09:27:16;;;;;;;6.20;3.90;;;;;;;18.03;68.07;99037.21;269921;1267;24207;-90
2023/04/16 09:33:44;;;;;;;7.90;5.60;;;;;;;18.43;68.29;99036.14;271668;1267;22417;-90
2023/04/16 09:40:16;;;;;;;4.70;4.20;;;;;;;19.30;66.47;99033.11;271831;1267;22614;-88
2023/04/16 09:46:35;;;;;;;6.20;4.60;;;;;;;19.91;65.00;99036.46;270588;1267;22543;-89
2023/04/16 09:53:03;;;;;;;5.40;4.20;;;;;;;20.31;62.25;99043.37;271980;1267;23800;-89
2023/04/16 09:59:05;;;;;;;4.60;3.30;;;;;;;20.16;60.76;99044.30;272558;1268;23712;-87
2023/04/16 10:05:37;;;;;;;3.40;2.40;;;;;;;20.32;58.64;99043.55;269814;1267;25354;-89
2023/04/16 10:12:04;;;;;;;3.90;2.10;;;;;;;20.06;57.81;99037.80;270941;1267;22301;-90
2023/04/16 10:18:07;;;;;;;3.50;2.40;;;;;;;19.50;57.82;99032.96;271052;1267;25557;-90
2023/04/16 10:24:18;;;;;;;4.90;2.50;;;;;;;19.58;55.98;99029.52;271259;1267;22541;-88
2023/04/16 10:30:51;;;;;;;;;;;;;;;;;;;;;
2023/04/16 10:36:59;;;;;;;3.30;2.50;;;;;;;19.64;53.16;99036.25;272103;1268;22532;-88
2023/04/16 10:43:39;;;;;;;3.70;2.40;;;;;;;20.64;53.30;99040.40;271389;1268;22571;-90
2023/04/16 10:50:35;;;;;;;2.30;1.90;;;;;;;20.77;47.89;99037.75;272707;1268;22388;-87
2023/04/16 10:57:37;;;;;;;4.40;2.40;;;;;;;20.17;48.88;99036.34;273730;1267;22251;-86
2023/04/16 11:03:52;;;;;;;2.70;2.00;;;;;;;20.24;48.84;99035.76;271601;1260;23471;-90
2023/04/16 11:17:49;;;;;;;5.30;2.30;;;;;;;20.13;48.59;99041.58;272415;1267;22338;-89
2023/04/16 11:23:52;;;;;;;13.20;6.00;;;;;;;20.69;47.09;99038.38;273657;1267;22210;-89
2023/04/16 11:30:13;;;;;;;3.00;1.70;;;;;;;20.35;46.85;99046.35;270799;1258;23094;-89
2023/04/16 11:36:18;;;;;;;2.90;1.60;;;;;;;19.71;46.09;99048.13;271360;1266;23657;-89
2023/04/16 11:42:47;;;;;;;2.30;1.30;;;;;;;19.19;46.88;99039.86;270886;1266;22570;-89
2023/04/16 11:48:54;;;;;;;1.70;1.30;;;;;;;19.27;47.28;99042.06;270382;1266;22560;-90
2023/04/16 11:54:56;;;;;;;2.40;1.40;;;;;;;19.68;46.29;99042.36;273425;1268;22197;-89
2023/04/16 12:01:21;;;;;;;2.60;1.50;;;;;;;20.06;45.03;99042.42;273697;1267;22302;-90
2023/04/16 12:07:24;;;;;;;2.10;1.50;;;;;;;19.93;44.94;99039.58;274034;1266;22211;-88
2023/04/16 12:13:38;;;;;;;1.90;1.50;;;;;;;19.81;45.19;99031.88;273827;1267;23017;-89
2023/04/16 12:20:09;;;;;;;2.00;1.20;;;;;;;20.22;45.34;99032.09;272502;1267;22333;-90
2023/04/16 12:34:01;;;;;;;1.60;1.20;;;;;;;20.36;43.31;99018.92;272386;1262;22224;-90
2023/04/16 12:40:28;;;;;;;2.10;1.20;;;;;;;20.07;43.65;99017.61;273895;1268;22204;-89
2023/04/16 12:46:52;;;;;;;1.60;1.00;;;;;;;19.91;43.92;99012.58;273158;1267;22354;-90
2023/04/16 12:53:19;;;;;;;3.60;1.40;;;;;;;19.75;43.72;99013.70;271059;1268;22502;-90
2023/04/16 12:59:46;;;;;;;1.70;1.20;;;;;;;19.64;43.87;99010.64;270843;1268;23274;-89
2023/04/16 13:06:22;;;;;;;1.20;1.00;;;;;;;19.60;43.25;99007.66;270689;1267;23674;-89
2023/04/16 13:12:23;;;;;;;1.60;1.00;;;;;;;19.40;42.81;99006.16;271942;1269;22528;-90
2023/04/16 13:18:48;;;;;;;1.00;0.90;;;;;;;19.13;42.39;99006.55;273508;1267;22302;-88
2023/04/16 13:25:00;;;;;;;1.20;1.00;;;;;;;18.64;42.54;99009.63;273077;1267;22321;-89
2023/04/16 13:31:04;;;;;;;2.00;1.00;;;;;;;18.22;42.67;99008.77;271381;1267;22434;-88
2023/04/16 13:37:09;;;;;;;1.90;0.90;;;;;;;18.02;42.83;99003.68;273467;1266;22546;-88
2023/04/16 13:43:24;;;;;;;1.30;1.00;;;;;;;18.13;42.92;98997.79;271213;1265;22540;-88
2023/04/16 13:49:27;;;;;;;1.50;0.90;;;;;;;18.19;42.87;98995.45;271499;1269;22394;-88
2023/04/16 13:55:45;;;;;;;1.30;1.00;;;;;;;18.54;43.09;98998.30;271126;1259;22602;-88
2023/04/16 14:01:47;;;;;;;1.60;1.20;;;;;;;18.74;42.76;98997.67;270490;1268;22563;-88
2023/04/16 14:08:40;;;;;;;4.00;1.50;;;;;;;18.78;42.53;98992.27;270991;1267;27666;-86
2023/04/16 14:14:55;;;;;;;5.40;2.10;;;;;;;18.90;42.69;98992.56;271470;1267;22315;-89
2023/04/16 14:21:39;;;;;;;2.70;0.80;;;;;;;18.68;42.12;98993.36;272474;1267;22188;-89
2023/04/16 14:27:41;;;;;;;2.40;1.40;;;;;;;18.44;42.50;98993.61;272675;1268;23171;-89
2023/04/16 14:34:12;;;;;;;2.20;1.70;;;;;;;18.23;42.49;98991.89;273356;1268;22616;-89
2023/04/16 14:40:14;;;;;;;2.70;1.90;;;;;;;17.79;42.49;98997.69;272770;1267;22999;-90
2023/04/16 14:47:11;;;;;;;2.30;1.70;;;;;;;17.51;43.01;99000.09;270638;1267;23877;-90
2023/04/16 14:53:18;;;;;;;2.70;1.70;;;;;;;17.45;42.94;98998.27;272385;1268;22552;-91
2023/04/16 14:59:38;;;;;;;4.00;2.10;;;;;;;17.36;43.38;99003.70;270854;1268;26705;-89
2023/04/16 15:06:04;;;;;;;8.80;4.90;;;;;;;17.12;43.71;99005.89;271370;1267;22549;-90
2023/04/16 15:12:23;;;;;;;4.00;2.30;;;;;;;16.86;44.14;99004.61;271463;1268;22340;-88
2023/04/16 15:18:28;;;;;;;3.60;2.10;;;;;;;16.68;44.33;99005.95;271281;1258;22540;-90
2023/04/16 15:24:30;;;;;;;2.70;1.80;;;;;;;16.55;44.72;99003.60;272105;1267;23463;-89
2023/04/16 15:30:56;;;;;;;2.60;2.00;;;;;;;16.48;44.79;99008.81;272030;1268;22294;-89
2023/04/16 15:37:01;;;;;;;2.70;1.90;;;;;;;16.39;44.82;99009.05;271994;1268;22568;-90
2023/04/16 15:43:30;;;;;;;2.90;2.40;;;;;;;16.30;45.06;99010.83;272123;1267;22545;-91
2023/04/16 15:49:54;;;;;;;3.20;2.40;;;;;;;16.17;45.58;99012.70;271171;1268;22550;-89
2023/04/16 15:56:45;;;;;;;5.30;3.10;;;;;;;16.03;45.93;99016.02;270926;1266;23373;-88
2023/04/16 16:02:47;;;;;;;5.20;3.20;;;;;;;15.96;46.28;99021.60;269919;1267;22913;-87
2023/04/16 16:08:49;;;;;;;4.10;2.60;;;;;;;15.86;46.48;99020.04;270807;1267;23731;-88
2023/04/16 16:14:51;;;;;;;6.30;4.20;;;;;;;15.74;47.00;99026.31;270761;1257;22465;-89
2023/04/16 16:21:13;;;;;;;4.30;3.30;;;;;;;15.61;47.14;99031.15;270524;1268;26730;-89
2023/04/16 16:27:15;;;;;;;4.70;3.10;;;;;;;15.42;47.19;99036.11;270705;1268;22549;-90
2023/04/16 16:33:17;;;;;;;6.50;3.60;;;;;;;15.17;47.81;99043.60;271834;1258;22561;-89
2023/04/16 16:39:23;;;;;;;5.60;2.90;;;;;;;14.97;48.59;99047.26;272026;1268;22536;-88
2023/04/16 16:45:25;;;;;;;6.40;3.80;;;;;;;14.81;49.22;99055.05;271312;1267;22367;-89
2023/04/16 16:51:36;;;;;;;5.00;3.50;;;;;;;14.64;49.64;99059.63;271092;1268;24222;-89
2023/04/16 16:57:39;;;;;;;8.60;3.80;;;;;;;14.45;50.02;99060.41;270481;1268;24272;-90
2023/04/16 17:04:09;;;;;;;5.80;4.10;;;;;;;14.30;50.43;99066.98;270637;1271;24398;-89
2023/04/16 17:10:14;;;;;;;5.30;3.50;;;;;;;14.12;50.94;99069.52;271474;1255;23369;-90
2023/04/16 17:16:18;;;;;;;9.20;4.00;;;;;;;13.92;51.45;99082.13;273345;1268;22564;-89
2023/04/16 17:22:22;;;;;;;8.40;4.20;;;;;;;13.74;52.15;99089.77;271359;1258;23807;-89
2023/04/16 17:28:25;;;;;;;4.50;3.10;;;;;;;13.58;52.74;99093.05;272695;1268;22275;-89
2023/04/16 17:34:27;;;;;;;6.40;3.90;;;;;;;13.41;53.34;99097.98;273874;1269;22185;-90
2023/04/16 17:40:57;;;;;;;6.20;3.70;;;;;;;13.15;53.91;99103.74;272835;1267;486389;-90
2023/04/16 17:46:59;;;;;;;5.40;3.80;;;;;;;12.87;54.40;99111.48;273681;1268;22384;-90
2023/04/16 17:53:02;;;;;;;5.40;4.00;;;;;;;12.59;55.16;99119.21;264742;1258;10002761;-89
2023/04/16 17:59:46;;;;;;;6.90;4.40;;;;;;;12.33;56.06;99120.48;272068;1268;22548;-90
2023/04/16 18:05:55;;;;;;;;;;;;;;;12.08;56.94;99127.75;272303;1267;22499;-89
2023/04/16 18:12:01;;;;;;;;;;;;;;;11.77;57.93;99129.71;271891;1265;22556;-90
2023/04/16 18:18:05;;;;;;;10.90;7.40;;;;;;;11.53;58.75;99133.54;272090;1267;22800;-89
2023/04/16 18:24:08;;;;;;;13.40;7.30;;;;;;;11.29;59.47;99138.38;271592;1269;22422;-88
2023/04/16 18:30:18;;;;;;;12.50;7.50;;;;;;;11.10;60.43;99147.11;272250;1258;22550;-89
2023/04/16 18:36:21;;;;;;;15.80;7.70;;;;;;;10.94;61.17;99145.98;273773;1267;23061;-89
2023/04/16 18:42:36;;;;;;;12.40;8.20;;;;;;;10.79;61.72;99156.52;272634;1268;22652;-89
2023/04/16 18:49:31;;;;;;;19.80;11.10;;;;;;;10.54;62.47;99164.01;272368;1268;22547;-88
2023/04/16 18:55:40;;;;;;;;;;;;;;;10.27;63.22;99163.13;273712;1267;22472;-89
2023/04/16 19:01:46;;;;;;;27.20;13.80;;;;;;;9.99;64.29;99166.04;273983;1258;23397;-88
2023/04/16 19:07:51;;;;;;;22.90;14.90;;;;;;;9.87;64.91;99170.61;272462;1268;23802;-88
2023/04/16 19:14:01;;;;;;;23.70;14.50;;;;;;;9.69;65.66;99171.07;272685;1272;25239;-88
2023/04/16 19:20:32;;;;;;;28.40;15.50;;;;;;;9.48;66.37;99172.35;272375;1267;22561;-89
2023/04/16 19:26:34;;;;;;;32.50;17.60;;;;;;;9.29;67.14;99166.95;272373;1270;22568;-88
2023/04/16 19:32:44;;;;;;;30.10;16.70;;;;;;;9.18;67.98;99167.95;271802;1269;22570;-88
2023/04/16 19:39:08;;;;;;;27.70;16.60;;;;;;;9.07;68.67;99165.56;272392;1268;22604;-88
2023/04/16 19:45:24;;;;;;;35.80;19.30;;;;;;;8.94;69.05;99160.15;272261;1267;23725;-89
2023/04/16 19:51:28;;;;;;;29.60;16.90;;;;;;;8.78;69.79;99161.63;272611;1271;22332;-88
2023/04/16 19:57:32;;;;;;;27.30;16.20;;;;;;;8.64;70.26;99164.75;273514;1269;23651;-88
2023/04/16 20:04:20;;;;;;;30.10;16.30;;;;;;;8.50;70.85;99166.25;272505;1268;23113;-88
2023/04/16 20:10:24;;;;;;;30.40;16.60;;;;;;;8.42;71.78;99160.83;271688;1268;24368;-89
2023/04/16 20:16:27;;;;;;;22.20;14.70;;;;;;;8.31;72.28;99155.98;271731;1267;22566;-88
2023/04/16 20:22:36;;;;;;;25.50;16.00;;;;;;;8.11;72.46;99154.26;273471;1271;22427;-88
2023/04/16 20:28:42;;;;;;;27.60;16.00;;;;;;;7.86;72.78;99160.44;272669;1261;25454;-89
2023/04/16 20:34:46;;;;;;;23.20;14.90;;;;;;;7.66;73.40;99165.02;271780;1268;22533;-88
2023/04/16 20:41:05;;;;;;;33.40;17.00;;;;;;;7.55;74.07;99162.40;271732;1272;22509;-88
2023/04/16 20:47:07;;;;;;;27.10;18.10;;;;;;;7.45;74.60;99157.00;271343;1267;22538;-89
2023/04/16 20:53:37;;;;;;;28.80;17.50;;;;;;;7.40;75.32;99152.20;271719;1267;23329;-88
2023/04/16 20:59:40;;;;;;;29.90;17.90;;;;;;;7.31;75.95;99145.20;272367;1270;22471;-89
2023/04/16 21:06:16;;;;;;;28.10;17.30;;;;;;;7.20;76.27;99149.09;271581;1268;23302;-88
2023/04/16 21:12:25;;;;;;;30.50;18.30;;;;;;;7.04;76.77;99150.39;271294;1267;22583;-87
2023/04/16 21:18:27;;;;;;;30.00;18.80;;;;;;;6.91;77.46;99148.77;272304;1267;22244;-87
2023/04/16 21:25:14;;;;;;;26.80;16.50;;;;;;;6.77;77.80;99150.00;274054;1267;22327;-89
2023/04/16 21:31:50;;;;;;;28.90;18.70;;;;;;;6.67;78.21;99148.09;273550;1270;22349;-88
2023/04/16 21:37:53;;;;;;;29.40;17.80;;;;;;;6.52;78.53;99146.84;272859;1260;22463;-88
2023/04/16 21:44:00;;;;;;;33.60;19.70;;;;;;;6.38;78.81;99151.04;271381;1267;22657;-86
2023/04/16 21:50:02;;;;;;;39.00;22.20;;;;;;;6.25;79.50;99146.70;271277;1267;22560;-86
2023/04/16 21:56:08;;;;;;;38.00;20.00;;;;;;;6.17;79.75;99158.08;271534;1260;24264;-87
2023/04/16 22:02:13;;;;;;;31.20;18.90;;;;;;;5.94;80.00;99153.46;271364;1269;22713;-86
2023/04/16 22:08:20;;;;;;;36.50;21.30;;;;;;;5.83;80.90;99151.50;272231;1267;22560;-87
2023/04/16 22:14:28;;;;;;;35.40;19.40;;;;;;;5.75;80.33;99153.46;273263;1267;22486;-87
2023/04/16 22:20:37;;;;;;;33.00;21.00;;;;;;;5.64;81.36;99155.98;271488;1267;24175;-87
2023/04/16 22:26:45;;;;;;;34.90;22.10;;;;;;;5.57;81.74;99161.52;271609;1267;25428;-86
2023/04/16 22:32:46;;;;;;;29.70;18.70;;;;;;;5.50;82.59;99157.81;271574;1267;22546;-88
2023/04/16 22:38:57;;;;;;;33.10;19.40;;;;;;;5.50;82.73;99155.09;271157;1267;24212;-88
2023/04/16 22:45:01;;;;;;;47.10;24.50;;;;;;;5.44;82.80;99157.85;271200;1267;22495;-87
2023/04/16 22:51:23;;;;;;;34.90;20.80;;;;;;;5.35;83.20;99164.76;271320;1268;23014;-88
2023/04/16 22:57:25;;;;;;;38.10;21.70;;;;;;;5.28;83.43;99160.86;271412;1257;22408;-87
2023/04/16 23:04:15;;;;;;;40.00;21.20;;;;;;;5.16;83.73;99159.11;271023;1270;22492;-87
2023/04/16 23:10:21;;;;;;;47.80;24.30;;;;;;;5.02;83.84;99161.50;272092;1267;25451;-87
2023/04/16 23:16:32;;;;;;;37.20;20.70;;;;;;;4.97;84.61;99158.67;272139;1266;22322;-88
2023/04/16 23:22:35;;;;;;;38.80;22.20;;;;;;;4.89;84.63;99158.55;271562;1257;22570;-88
2023/04/16 23:28:39;;;;;;;45.40;26.40;;;;;;;4.79;84.73;99152.84;270767;1267;24301;-88
2023/04/16 23:34:41;;;;;;;45.60;26.20;;;;;;;4.71;85.19;99156.20;271134;1267;22664;-87
2023/04/16 23:40:44;;;;;;;38.80;21.90;;;;;;;4.64;85.54;99149.24;271052;1267;22576;-87
2023/04/16 23:47:31;;;;;;;36.10;19.70;;;;;;;4.62;86.07;99148.29;271366;1267;22699;-88
2023/04/16 23:54:17;;;;;;;34.10;20.80;;;;;;;4.61;86.11;99147.09;271207;1268;22523;-88
